EHGR/GLZ METAR and TAF weather

Enter ICAO airport designator
Station Type Date Time Source
EHGR METAR 2021/08/02 02:55 UTC NOAA

EHGR 020255Z AUTO 25003KT 9999 OVC045 14/12 Q1013 BLU


Station Type Date Time Source
EHGR Decoded METAR 2021/08/02 02:55 UTC NOAA

Gilze-Rijen, Netherlands (EHGR) 51-34N 004-56E 24M
Aug 01, 2021 - 10:55 PM EDT / 2021.08.02 0255 UTC
Wind: from the WSW (250 degrees) at 3 MPH (3 KT):0
Visibility: greater than 7 mile(s):0
Sky conditions: overcast
Temperature: 57 F (14 C)
Dew Point: 53 F (12 C)
Relative Humidity: 87%
Pressure (altimeter): 29.91 in. Hg (1013 hPa)
ob: EHGR 020255Z AUTO 25003KT 9999 OVC045 14/12 Q1013 BLU
cycle: 3

Station Type Date Time Source
EHGR TAF 2021/07/30 13:06 UTC NOAA

TAF TAF EHGR 301247Z 3013/3101 22012KT 9999 SCT040
TEMPO 3013/3019 23013G26KT 4000 -SHRA FEW017 SCT020CB BKN030
BECMG 3019/3021 22015G25KT FEW016 BKN020
TEMPO 3022/3101 25015G30KT 4000 -SHRA FEW010 BKN016 SCT018CB

Example: see airport list